Доска объявлений - карта вид · инфо · телеметрия · погода · источник · статус · маяк · сообщения · бюллетни · люди · движущийся · my account

Эта страница отображает APRS бюллетени и обьявления за последние 24 час(ов).

Выберите конкретный бюллетень группы:
    all APRS FRA IGI LOCAL LUX MAREA MAREN SYDTD SYDWX WX XXXXX

Бюллетени и обьявления переданные станциями в радиусе 500 км от Вашей позиции.
позывной ID сообщение возраст
AOMTN-5 BLN1XXXXX NO 9600? 11h45m
GDHILL-8 BLN1 1->9 ok. 6>5 weak. 14sees 11-13. 13 no digi 13h31m
GDHILL-8 BLN2 1->12 ok. 6>5 weak. 14sees 11-13. 13 no digi. 15 vox w 14. 13h20m
GDHILL-8 BLN3 Time for GP. 1 & 13 send msg to ALL. 12h36m
GDHILL-8 BLN4 #8 sees #1 Hello GP msg! 12h49m
GDHILL-8 BLN5 QRT at 1500. TNX! 11h49m
GDHILL-8 BLN6 QRT at 1500. No 9600 TNX! 11h46m
N2NUO-15 BLN0 WxBot 1.22 US weather forecast via APRS message. 2h11m
N2NUO-15 BLN1 Send a message to N2NUO-15 for a weather forecast at your location. 2h11m
N2NUO-15 BLN2 see https://sites.google.com/site/ki6wjp/wxbot 2h11m
N4AZR BLN0005 ROAN QRT 1505. 73 ALL! 11h41m
N4AZR BLN003 AT GP 2018 12h24m
Бюллетни (BLN0 - BLN9)
позывной ID сообщение возраст
1P9JJ BLN0 9g459ythsah gskjfdgfdsg 3wh e ghwoishg t8743w 17h51m
456522 BLN2 TEMPERATURA MUITO BAIXA EM SAO JOAQUIM - 3ºC - Sun, 22 Jul 2018 01:00 AM BRT 1h37m
9Z4RG-6 BLN0 APRS IGate 144.390MHz SGate 145.825MHz 1m48s
CX2SA-AB BLN1 ((((((( CX2SA - Salto Uruguay ))))))) http://www.cx2sa.org 15m
CX2SA-AB BLN2 CX2SA-EM APRS Email - Example> your@maildomain Hello World! 14m58s
CX2SA-AB BLN3 Send message to CX2SA-WI like: F callsign to WHO-IS info 14m56s
CX2SA-AB BLN4 ((( CX2SA-S1 ))) iAPRS Network http://www.iaprs.net 14m54s
CX2SA-AB BLN5 DOWNLOAD latest iAPRS servers list at http://cx2sa.org/SERVERS.TXT 14m52s
DB2HTA BLN0 DB2HTA, Herby looking for Olivia mode QSO, db2hta@darc.de 9h
EA5GFY-1 BLN1 Echolink EA5GFY-L UHF 145.235 Tono 94.8 CARTAGENA [Cobertura 25 Km] 12h54m
K7YVO-15 BLN0 K7YVO-10 Winlink RMS E-Mail Gateway 145.610 22m53s
LW1DSE BLN1 Radiostation partially powered from Sun energy (18 Cell's 10Wpk). 9h42m
PY5BK-10 BLN0 Ricardo Aurelio Seco - py5bk@qsl.net - (43) 9.9919-0404 12m48s
PY5BK-10 BLN1 Equipamentos e Projetos de APRS - http://www.py5bk.net/aprs 12m37s
SBAF BLN0 Campo Delio Jardim de Mattos Airport METAR SBAF 212300Z 27010KT 8000 SCT020 23/18 Q1020 7h11m
SBAN BLN0 Base Aerea Airport METAR SBAN 220600Z 07005KT CAVOK 16/08 Q1020 11m45s
SBAR BLN0 Santa Maria Airport METAR SBAR 220600Z 12011KT 9999 SCT017 25/20 Q1016 11m35s
SBAU BLN0 Aracatuba Airport METAR SBAU 210900Z 20010KT CAVOK 18/10 Q1019 21h6m
SBAX BLN0 Araxa Airport METAR SBAX 211000Z 00000KT CAVOK 14/09 Q1023 20h11m
SBBE BLN0 Val de Cans Julio Cezar Ribeiro International Airport METAR SBBE 220600Z 08008KT CAVOK 25/23 Q1011 11m23s
SBBH BLN0 Pampulha - Carlos Drummond de Andrade Airport METAR SBBH 220600Z 10005KT CAVOK 16/12 Q1021 10m49s
SBBI BLN0 Bacacheri Airport METAR SBBI 220100Z 09004KT 9999 BKN007 13/11 Q1023 5h10m
SBBQ BLN0 Major Brigadeiro Doorgal Borges Airport METAR SBBQ 212300Z 10003KT CAVOK 18/13 Q1024 7h10m
SBBR BLN0 Presidente Juscelino Kubistschek International Airport METAR SBBR 220600Z 00000KT CAVOK 10/08 Q1020 10m38s
SBBU BLN0 Bauru Airport METAR SBBU 220300Z 07009KT CAVOK 18/16 Q1020 3h10m
SBBV BLN0 Atlas Brasil Cantanhede Airport METAR SBBV 220600Z 31002KT 9999 FEW025 24/23 Q1012 10m28s
SBCA BLN0 Cascavel Airport METAR SBCA 211800Z 15014KT CAVOK 15/06 Q1022 12h9m
SBCB BLN0 Cabo Frio Airport METAR SBCB 212100Z 10003KT CAVOK 25/17 Q1016 9h9m
SBCC BLN0 Cachimbo Airport METAR SBCC 212000Z 06010KT CAVOK 30/10 Q1013 10h9m
SBCF BLN0 Tancredo Neves International Airport METAR SBCF 220600Z 11008KT CAVOK 15/12 Q1022 9m54s
SBCG BLN0 Campo Grande Airport METAR SBCG 220600Z 12007KT CAVOK 13/06 Q1017 9m44s
SBCH BLN0 Chapeco Airport METAR SBCH 220400Z 12014KT CAVOK 07/04 Q1020 2h9m
SBCJ BLN0 Carajas Airport METAR SBCJ 212130Z 00000KT CAVOK 22/14 Q1015 9h9m
SBCO BLN0 Canoas Airport METAR SBCO 220300Z 14001KT CAVOK 05/04 Q1023 3h9m
SBCP BLN0 Bartolomeu Lisandro Airport METAR SBCP 212300Z 04004KT CAVOK 22/20 Q1018 7h8m
SBCR BLN0 Corumba International Airport METAR SBCR 220000Z 20007KT CAVOK 16/06 Q1018 6h8m
SBCT BLN0 Afonso Pena Airport METAR SBCT 220600Z 09005KT 9999 OVC009 12/10 Q1023 8m55s
SBCX BLN0 Campo dos Bugres Airport METAR SBCX 212200Z 33004KT CAVOK 07/03 Q1023 8h7m
SBCY BLN0 Marechal Rondon Airport METAR SBCY 220600Z 20004KT CAVOK 15/14 Q1017 8m44s
SBCZ BLN0 Cruzeiro do Sul Airport METAR SBCZ 220600Z 12005KT 9999 SCT005 BKN100 22/19 Q1015 8m34s
SBDN BLN0 Presidente Prudente Airport METAR SBDN 220300Z 00000KT CAVOK 14/08 Q1019 3h8m
SBEG BLN0 Eduardo Gomes International Airport METAR SBEG 220600Z 33001KT CAVOK 23/22 Q1011 8m24s
SBES BLN0 Sao Pedro da Aldeia Airport METAR SBES 212100Z 04004KT CAVOK 22/19 Q1017 9h7m
SBFI BLN0 Cataratas International Airport METAR SBFI 220600Z 10003KT 0900 R14/1200 R32/1200 FG SCT003 05/05 Q1018 7m53s
SBFL BLN0 Hercilio Luz International Airport METAR SBFL 220600Z 00000KT 9999 SCT025 13/12 Q1024 7m41s
SBFN BLN0 Fernando de Noronha Airport METAR SBFN 212200Z 11013KT 9999 SCT022 25/22 Q1014 8h6m
SBFZ BLN0 Pinto Martins International Airport METAR SBFZ 220600Z 10010KT 9999 SCT030 BKN070 26/23 Q1012 7m30s
SBGL BLN0 Galeao - Antonio Carlos Jobim International Airport METAR SBGL 220600Z 24009KT 9999 SCT012 BKN030 23/20 Q1020 7m19s
SBGM BLN0 Guajara-Mirim Airport METAR SBGM 211800Z 17012KT 9999 BKN020 26/17 Q1015 12h5m
SBGO BLN0 Santa Genoveva Airport METAR SBGO 220600Z 00000KT CAVOK 15/11 Q1019 7m9s
SBGR BLN0 Guarulhos - Governador Andre Franco Montoro International Airport METAR SBGR 220600Z 12004KT 9999 BKN009 OVC011 16/15 Q1023 6m54s
SBGW BLN0 Guaratingueta Airport METAR SBGW 212300Z 25008KT 220V280 CAVOK 18/14 Q1021 7h6m
SBHT BLN0 Altamira Airport METAR SBHT 220100Z 00000KT CAVOK 22/22 Q1012 5h6m
SBIH BLN0 Itaituba Airport METAR SBIH 212000Z /////KT 9999 FEW025 34/20 Q1008 10h4m
SBIL BLN0 Bahia - Jorge Amado Airport METAR SBIL 220600Z 27003KT 9999 FEW040 18/18 Q1018 6m43s
SBIP BLN0 Usiminas Airport METAR SBIP 220300Z 00000KT CAVOK 16/15 Q1020 3h6m
SBIZ BLN0 Prefeito Renato Moreira Airport METAR SBIZ 212000Z 11004KT CAVOK 35/18 Q1010 10h4m
SBJP BLN0 Presidente Castro Pinto Airport METAR SBJP 220600Z 18008KT 9999 FEW019 BKN070 22/19 Q1015 5m55s
SBJR BLN0 Jacarepagua - Roberto Marinho Airport METAR SBJR 212300Z 23006KT 9999 BKN016 23/20 Q1020 7h5m
SBJU BLN0 Orlando Bezerra de Menezes Airport METAR SBJU 212300Z 18005KT CAVOK 27/13 Q1017 7h5m
SBJV BLN0 Lauro Carneiro de Loyola Airport METAR SBJV 212200Z 13007KT 9999 SCT010 BKN017 16/13 Q1022 8h4m
SBKG BLN0 Presidente Joao Suassuna Airport METAR SBKG 220300Z 13007KT CAVOK 20/17 Q1018 3h5m
SBKP BLN0 Viracopos International Airport METAR SBKP 220600Z 12013KT CAVOK 16/13 Q1020 5m42s
SBLO BLN0 Governador Jose Richa Airport METAR SBLO 220600Z 00000KT CAVOK 15/10 Q1019 4m54s
SBLS BLN0 Lagoa Santa Airport METAR SBLS 220100Z 14008KT CAVOK 19/13 Q1022 5h4m
SBMA BLN0 Maraba Airport METAR SBMA 220600Z 21002KT CAVOK 21/19 Q1011 4m41s
SBME BLN0 Macae Airport METAR SBME 220400Z 22003KT CAVOK 20/18 Q1019 2h3m
SBMG BLN0 Regional de Maringa - Silvio Nane Junior Airport METAR SBMG 220300Z 00000KT CAVOK 13/05 Q1018 3h4m
SBMK BLN0 Mario Ribeiro Airport METAR SBMK 220400Z 23002KT CAVOK 17/10 Q1020 2h3m
SBMN BLN0 Ponta Pelada Airport METAR SBMN 220600Z 10002KT CAVOK 25/24 Q1011 3m54s
SBMO BLN0 Zumbi dos Palmares Airport METAR SBMO 220600Z 32004KT 9999 FEW023 19/18 Q1016 3m42s
SBMQ BLN0 Alberto Alcolumbre Airport METAR SBMQ 220600Z 01003KT 9999 BKN015 26/26 Q1011 3m31s
SBMS BLN0 Dix-Sept Rosado Airport METAR SBMS 211200Z 17005KT 9999 FEW025 30/18 Q1015 18h3m
SBMT BLN0 Campo de Marte Airport METAR SBMT 220200Z 13008KT 9999 BKN011 BKN013 16/13 Q1024 4h3m
SBNF BLN0 Ministro Victor Konder International Airport METAR SBNF 220300Z 11004KT 9999 SCT030 16/11 Q1024 3h3m
SBNT BLN0 Augusto Severo Airport METAR SBNT 220600Z 18011KT 9999 BKN030 24/19 Q1013 3m21s
SBOI BLN0 Oiapoque Airport METAR SBOI 212000Z 30003KT 9999 SCT030 SCT100 30/23 Q1010 10h1m
SBPA BLN0 Salgado Filho Airport METAR SBPA 220600Z 08002KT CAVOK 06/06 Q1022 2m54s
SBPB BLN0 Prefeito Doutor Joao Silva Filho Airport METAR SBPB 212145Z 07006KT CAVOK 27/24 Q1010 8h1m
SBPC BLN0 Pocos de Caldas Airport METAR SBPC 212000Z 29005KT CAVOK 23/09 Q1022 10h1m
SBPF BLN0 Lauro Kurtz Airport METAR SBPF 211100Z 25008KT 9999 SCT030 BKN100 07/04 Q1024 19h1m
SBPJ BLN0 Brigadeiro Lysias Rodrigues Airport METAR SBPJ 220600Z 11002KT CAVOK 19/14 Q1013 2m44s
SBPK BLN0 Pelotas Airport METAR SBPK 212145Z 00000KT CAVOK 11/03 Q1021 8h
SBPL BLN0 Senador Nilo Coelho Airport METAR SBPL 220600Z 16008KT CAVOK 21/13 Q1017 2m29s
SBPP BLN0 Ponta Pora Airport METAR SBPP 212200Z 15002KT CAVOK 14/04 Q1020 8h
SBPR BLN0 Carlos Prates Airport METAR SBPR 212000Z 28004KT 9999 FEW025 27/09 Q1020 10h
SBPS BLN0 Porto Seguro Airport METAR SBPS 220600Z 25005KT 9999 FEW030 19/17 Q1019 2m19s
SBPV BLN0 Governador Jorge Teixeira de Oliveira Airport METAR SBPV 220600Z 22006KT CAVOK 22/16 Q1013 1m55s
SBQV BLN0 Vitoria da Conquista Airport METAR SBQV 211800Z 15012KT 9999 -RA BKN025 22/16 Q1021 11h59m
SBRB BLN0 Placido de Castro Airport METAR SBRB 220600Z 15004KT 110V180 CAVOK 15/11 Q1016 1m44s
SBRF BLN0 Guararapes - Gilberto Freyre International Airport METAR SBRF 220600Z 21007KT 9999 FEW025 22/19 Q1015 1m34s
SBRJ BLN0 Santos Dumont Airport METAR SBRJ 220600Z 18014KT 6000 FEW007 BKN012 BKN070 23/21 Q1020 1m24s
SBRP BLN0 Leite Lopes Airport METAR SBRP 220600Z 09004KT CAVOK 15/11 Q1018 1m14s
SBSC BLN0 Santa Cruz Airport METAR SBSC 220600Z 21008KT 9999 BKN010 OVC040 22/20 Q1020 1m4s
SBSJ BLN0 Professor Urbano Ernesto Stumpf Airport METAR SBSJ 220600Z 00000KT 9999 BKN017 17/15 Q1023 55s
SBSL BLN0 Marechal Cunha Machado International Airport METAR SBSL 220600Z 07004KT CAVOK 25/24 Q1011 45s
SBSM BLN0 Santa Maria Airport METAR SBSM 220300Z 03003KT 350V060 CAVOK 05/04 Q1022 3h
SBSN BLN0 Maestro Wilson Fonseca Airport METAR SBSN 220600Z 15003KT CAVOK 23/23 Q1011 34s
SBSP BLN0 Congonhas Airport METAR SBSP 220429Z AUTO 16006KT 5000 BR SCT003 BKN005 OVC016 14/13 Q1024 2h
SBSR BLN0 Sao Jose do Rio Preto Airport METAR SBSR 220600Z 23005KT CAVOK 18/11 Q1018 24s
SBST BLN0 Base Aerea de Santos Airport METAR SBST 212300Z VRB02KT 1000 DZ BR OVC005 18/17 Q1021 6h59m
SBSV BLN0 Deputado Luiz Eduardo Magalhaes International Airport METAR SBSV 220600Z 12006KT 9999 SCT023 25/19 Q1017 14s
SBTC BLN0 Hotel Transamerica Airport METAR SBTC 211400Z 22004KT 9999 FEW020 OVC070 25/23 Q1021 15h57m
SBTE BLN0 Senador Petronio Portela Airport METAR SBTE 220600Z 35003KT CAVOK 25/20 Q1011 4s
SBTF BLN0 Tefe Airport METAR SBTF 220045Z 00000KT CAVOK 25/23 Q1011 4h59m
SBTT BLN0 Tabatinga Airport METAR SBTT 212300Z 09005KT 9999 SCT020 BKN100 27/22 Q1012 6h58m
SBUA BLN0 Sao Gabriel da Cachoeira Airport METAR SBUA 212000Z 07004KT 9999 SCT020 FEW025TCU 30/24 Q1008 9h56m
SBUF BLN0 Paulo Afonso Airport METAR SBUF 211200Z 11008KT 9999 BKN019 24/18 Q1020 17h57m
SBUG BLN0 Rubem Berta Airport METAR SBUG 212200Z 03005KT CAVOK 11/03 Q1021 7h57m
SBUL BLN0 Ten. Cel. Aviador Cesar Bombonato Airport METAR SBUL 220300Z 13006KT CAVOK 20/07 Q1021 2h59m
SBUR BLN0 Mario de Almeida Franco Airport METAR SBUR 220500Z 08004KT CAVOK 20/09 Q1020 58m55s
SBVH BLN0 Vilhena Airport METAR SBVH 212300Z 19007KT CAVOK 19/15 Q1017 6h58m
SBVT BLN0 Eurico de Aguiar Salles Airport METAR SBVT 220500Z 33002KT CAVOK 19/18 Q1019 58m45s
SBYS BLN0 Campo Fontenelle Airport METAR SBYS 220200Z 17004KT 120V190 CAVOK 17/12 Q1021 3h58m
WA1GOV-10 BLN0 APRS to Twitter Gateway-Send an APRS message to WA1GOV-10 7h8m
WA1GOV-10 BLN1 Your call and message will appear as a tweet from @wa1gov 7h8m
WA1GOV-10 BLN2 Include your Twitter ID or IDs to receive notifications 7h8m
WA1GOV-10 BLN3 Get the next SATELLITE pass prediction for your QTH! 7h8m
WA1GOV-10 BLN4 Send an APRS message to WA1GOV-10 with a single 7h8m
WA1GOV-10 BLN5 uppercase entry of ISS, AO-85, AO-91, AO-92 or SO-50 7h8m
WXBOT BLN0 WxBot 1.25 US weather forecast via APRS message. 54m40s
WXBOT BLN1 Send a message to WXBOT for a weather forecast at your location. 54m40s
WXBOT BLN2 see https://sites.google.com/site/ki6wjp/wxbot 54m40s
WXSVR-AU BLN0 WxSvr 1.00 AU weather forecast via APRS message. 29m7s
WXSVR-AU BLN1 Send a message to WXSVR-AU for a weather forecast at your location. 29m7s
WXSVR-AU BLN2 see http://wxsvr.aprs.net.au for more info 29m7s
WXYO BLN0 WxBot 1.22 RO weather forecast via APRS message. 2h24m
WXYO BLN1 Send a message to WXYO for a weather forecast at your location. 2h24m
WXYO BLN2 see https://sites.google.com/site/ki6wjp/wxbot 2h24m
Обьявления (BLNA - BLNZ)
позывной ID сообщение возраст
EA5GFY-1 BLNA RADAR 24 Hours Weather via APRS On-Line Web http://qrz.com/call/EA5GFY 12h55m
LW1DSE BLNA Estación parcialmente alimentada con energía solar (18 celdas 10Wpk). 9h42m
VK5RHO-1 BLNB Join the Email Group aprs.net.au/mailman/listinfo/ozaprs 41m34s
VK5RSC-1 BLNA Info/Help on APRS in Sth Aust at http://vk5.aprs.net.au 10m4s
Другие группы
позывной ID сообщение возраст
F8ARO-AB BLN1FRA CQ Serveur APRS 11m45s
F8ARO-AB BLN2FRA [To] CQSRVR-FR [Text] CQ message 11m40s
F8ARO-AB BLN3FRA Message APRS Email 11m35s
F8ARO-AB BLN4FRA [To] MAIL-FR [Text] email@domaine message 11m30s
F8ARO-AB BLN5FRA Annuaire QRZ.com 11m25s
F8ARO-AB BLN6FRA [To] QUI-FR [Text] f indicatif 11m20s
F8ARO-AB BLN7FRA FRANCE DMR TG 208 11m15s
IK3SVW BLN0MAREA Venezia 21/7 max=70cm@19:00 min=15cm@02:55 max=35cm@09:35 19h58m
IK3SVW BLN1-21 SISMA *2 km NW Pieve Torina (MC)* ML=3.3 21-07 08:01UTC 19h34m
IK3SVW BLN1MAREA Venezia 21/7 min=25cm@11:10 max=70cm@19:00 min=15cm@02:55 23h5m
IK3SVW BLN2-21 SISMA *Golfo di Policastro (Salerno, Potenza)* ML=3.2 21-07 09:27UTC 19h32m
IZ6RDB BLNEMAREN Adriatico Settentrionale: Previsti isolati temporali con colpi di v 12m21s
IZ6RDB BLNFMAREN Adriatico Settentrionale: nto. 1h12m
LX0APN-2 BLNALUX XLX270 Reflector https://xlx270.epf.lu/ 32m49s
LX0APR-2 BLNDIGI Pse use WIDEx-x & LUXx-x only , TNX 3h20m
LX1CU-13 BLNALUX XLX Reflector goes DMR https://xlx270.epf.lu/ 8m14s
LX6K-10 BLNALUX XLX270 B >< BM TG 27090 , You can reach us . 73 6m6s
N4AZR-7 BLN003 AT GP 2018 12h24m
NEUTBA BLN1SYDWX Sydney Forcast 23rd 19C Sunny. 38m3s
NEUTBA BLN2SYDTD Tide 1.58M, Vis 30Km, Cloud 01 Okt, Air Qual 37, UV idx 39m55s
OK1COM-10 BLN4WX SIGWX: S HALF ISOL TS 8m48s
ON5AA BLN 73,DE,REGI 23h57m
PY5DCP-1 BLN REER ATENCAO ALGUMAS REGIONAIS ESTARAO EM SIMULADO NO PROX 22/7 8m57s
ROAN-3 BLN001 roan digi up i think 14h31m
ROAN-3 BLN002 qsl 1-10 12h26m
YM2KDU BLN APRS Sabitte YM2KDU,WIDE2-2 Mobilde WIDE1-1,WIDE2-2 41m19s
YM2KY BLN1LOCAL info@sakrad.org 21m5s
Об этом сайте
На этой странице отображается в реальном времени информация полученная от Automatic Position Reporting System Интернет-сети (APRS-IS). APRS использует amateur (ham) radioпередаваемые в реальном масштабе времени данные от радиолюбителей - это такие данные как данные о местонахождении, о погоде, о телеметрии и сообщений из эфира. Транспортные стредства оснащённые GPS приёмником, a VHF transmitter или HF transceiver и маленьким компьютерным устройством - называемым треккером передают информацию о местонахождении, скорости и курса упаковывая эту информацию в небольшие пакеты данных, которые потом передаются по эфиру в неподалёку находящийся IP-шлюз, и далее - эти пакеты направляются в Интернет сеть. Системы подключённые к Интернету могут передавать информацию в APRS-IS без радиопередатчика, или собирать и отображать на дисплее информацию передаваемую из любой точки мира.
FAQ · Блог · Discussion group · Ссылка на aprs.fi · AIS сайт · Service status · Статистика DB · Advertising on aprs.fi · Технические детали · API · Изменение журнала · Планируемые изменения · Кредиты и благодарности · Terms Of Service · iPhone/iPad APRS